createdAt,value
2023-09-20T00:02:24.618Z,16.90
2023-09-20T00:05:01.491Z,14.90
2023-09-20T00:07:34.594Z,8.20
2023-09-20T00:10:13.529Z,10.70
2023-09-20T00:12:46.535Z,12.00
2023-09-20T00:15:19.372Z,7.40
2023-09-20T00:17:53.539Z,9.60
2023-09-20T00:20:26.556Z,13.80
2023-09-20T00:22:59.721Z,7.90
2023-09-20T00:25:52.784Z,12.00
2023-09-20T00:28:25.337Z,7.20
2023-09-20T00:30:58.514Z,12.70
2023-09-20T00:33:31.180Z,7.30
2023-09-20T00:36:03.754Z,7.30
2023-09-20T00:38:36.788Z,6.30
2023-09-20T00:41:09.809Z,9.70
2023-09-20T00:43:42.399Z,9.50
2023-09-20T00:46:34.893Z,14.00
2023-09-20T00:49:08.086Z,6.60
2023-09-20T00:51:41.631Z,12.20
2023-09-20T00:54:18.134Z,11.50
2023-09-20T00:56:50.947Z,10.10
2023-09-20T00:59:24.290Z,5.80
2023-09-20T01:01:58.142Z,5.80
2023-09-20T01:04:32.009Z,4.80
2023-09-20T01:07:04.396Z,9.80
2023-09-20T01:09:58.141Z,6.00
2023-09-20T01:12:31.062Z,7.70
2023-09-20T01:15:03.707Z,11.30
2023-09-20T01:17:47.835Z,7.00
2023-09-20T01:20:21.814Z,12.30
2023-09-20T01:25:30.991Z,5.90
2023-09-20T01:28:06.162Z,10.80
2023-09-20T01:30:40.480Z,11.00
2023-09-20T01:33:14.606Z,5.60
2023-09-20T01:36:07.860Z,8.00
2023-09-20T01:38:41.795Z,5.30
2023-09-20T01:44:09.263Z,6.90
2023-09-20T01:46:43.070Z,7.50
2023-09-20T01:51:47.585Z,6.60
2023-09-20T01:54:20.318Z,7.60
2023-09-20T01:56:53.275Z,4.50
2023-09-20T01:59:25.776Z,6.50
2023-09-20T02:01:58.343Z,5.70
2023-09-20T02:04:33.155Z,4.80
2023-09-20T02:09:37.100Z,8.40
2023-09-20T02:12:09.919Z,11.00
2023-09-20T02:14:42.944Z,11.50
2023-09-20T02:17:17.217Z,4.60
2023-09-20T02:19:51.418Z,8.30
2023-09-20T02:22:23.872Z,7.80
2023-09-20T02:24:56.571Z,6.20
2023-09-20T02:27:32.669Z,11.80
2023-09-20T02:30:06.328Z,8.30
2023-09-20T02:32:39.781Z,17.10
2023-09-20T02:35:12.821Z,9.80
2023-09-20T02:37:47.435Z,8.60
2023-09-20T02:40:21.626Z,10.50
2023-09-20T02:42:55.777Z,11.50
2023-09-20T02:45:30.994Z,10.90
2023-09-20T02:48:06.405Z,12.70
2023-09-20T02:50:43.049Z,4.90
2023-09-20T02:53:16.845Z,6.80
2023-09-20T02:55:49.915Z,10.20
2023-09-20T02:58:22.890Z,6.60
2023-09-20T03:00:55.264Z,5.90
2023-09-20T03:03:29.602Z,8.70
2023-09-20T03:06:11.486Z,7.60
2023-09-20T03:08:46.426Z,7.60
2023-09-20T03:11:29.327Z,4.80
2023-09-20T03:14:04.881Z,6.70
2023-09-20T03:16:38.051Z,7.10
2023-09-20T03:19:13.069Z,12.50
2023-09-20T03:21:48.655Z,4.80
2023-09-20T03:24:21.277Z,7.40
2023-09-20T03:26:53.730Z,13.00
2023-09-20T03:29:27.789Z,4.90
2023-09-20T03:32:01.999Z,13.20
2023-09-20T03:34:35.761Z,8.90
2023-09-20T03:37:11.071Z,9.70
2023-09-20T03:39:44.478Z,3.70
2023-09-20T03:42:16.851Z,7.20
2023-09-20T03:44:49.739Z,8.40
2023-09-20T03:47:22.249Z,5.80
2023-09-20T03:49:56.042Z,13.40
2023-09-20T03:52:28.336Z,7.10
2023-09-20T03:55:00.835Z,7.30
2023-09-20T03:57:33.464Z,6.90
2023-09-20T04:00:11.394Z,5.60
2023-09-20T04:02:49.770Z,8.10
2023-09-20T04:05:38.934Z,7.30
2023-09-20T04:08:18.456Z,11.70
2023-09-20T04:10:52.208Z,9.90
2023-09-20T04:13:24.688Z,6.50
2023-09-20T04:15:57.224Z,7.70
2023-09-20T04:18:29.937Z,8.60
2023-09-20T04:21:03.847Z,8.00
2023-09-20T04:23:36.890Z,8.40
2023-09-20T04:26:09.527Z,10.20
2023-09-20T04:28:42.309Z,6.10
2023-09-20T04:31:15.452Z,5.50
2023-09-20T04:33:48.725Z,8.90
2023-09-20T04:36:22.251Z,11.50
2023-09-20T04:38:54.992Z,9.40
2023-09-20T04:41:28.448Z,17.70
2023-09-20T04:44:01.015Z,7.10
2023-09-20T04:46:37.264Z,7.30
2023-09-20T04:49:11.487Z,6.10
2023-09-20T04:52:04.511Z,17.10
2023-09-20T04:54:36.964Z,8.40
2023-09-20T04:57:09.667Z,9.10
2023-09-20T04:59:42.301Z,10.20
2023-09-20T05:02:15.877Z,9.20
2023-09-20T05:04:48.895Z,15.80
2023-09-20T05:07:45.090Z,18.20
2023-09-20T05:10:18.149Z,15.20
2023-09-20T05:12:50.879Z,8.80
2023-09-20T05:15:24.466Z,9.20
2023-09-20T05:17:57.773Z,15.00
2023-09-20T05:20:32.430Z,20.00
2023-09-20T05:23:06.032Z,7.90
2023-09-20T05:25:39.518Z,12.90
2023-09-20T05:28:11.997Z,12.90
2023-09-20T05:30:48.082Z,9.70
2023-09-20T05:33:22.383Z,7.70
2023-09-20T05:35:54.858Z,5.70
2023-09-20T05:38:27.775Z,13.50
2023-09-20T05:41:00.136Z,5.10
2023-09-20T05:43:33.346Z,13.00
2023-09-20T05:46:10.167Z,11.10
2023-09-20T05:48:47.780Z,7.70
2023-09-20T05:51:22.116Z,12.80
2023-09-20T05:53:54.433Z,7.00
2023-09-20T05:56:27.577Z,10.30
2023-09-20T05:59:01.770Z,5.90
2023-09-20T06:01:34.563Z,16.00
2023-09-20T06:04:08.904Z,7.30
2023-09-20T06:06:42.041Z,7.50
2023-09-20T06:09:15.584Z,11.50
2023-09-20T06:11:47.977Z,11.40
2023-09-20T06:14:20.627Z,7.90
2023-09-20T06:16:54.632Z,11.20
2023-09-20T06:19:32.138Z,10.10
2023-09-20T06:22:04.826Z,9.90
2023-09-20T06:24:37.254Z,11.10
2023-09-20T06:27:10.454Z,10.30
2023-09-20T06:29:43.692Z,9.20
2023-09-20T06:32:18.072Z,9.20
2023-09-20T06:34:58.998Z,12.30
2023-09-20T06:37:32.052Z,7.60
2023-09-20T06:40:05.309Z,6.70
2023-09-20T06:42:38.527Z,7.50
2023-09-20T06:45:14.136Z,10.50
2023-09-20T06:47:47.046Z,6.60
2023-09-20T06:50:19.814Z,8.60
2023-09-20T06:52:54.923Z,12.70
2023-09-20T06:55:27.470Z,9.10
2023-09-20T06:58:17.322Z,10.40
2023-09-20T07:00:52.929Z,7.90
2023-09-20T07:03:25.938Z,14.60
2023-09-20T07:05:58.513Z,7.00
2023-09-20T07:08:35.977Z,7.80
2023-09-20T07:11:08.745Z,7.90
2023-09-20T07:14:06.861Z,9.70
2023-09-20T07:16:40.621Z,8.00
2023-09-20T07:19:18.600Z,5.60
2023-09-20T07:21:51.481Z,7.40
2023-09-20T07:24:25.688Z,7.60
2023-09-20T07:26:59.821Z,7.90
2023-09-20T07:29:32.359Z,16.50
2023-09-20T07:32:05.807Z,6.90
2023-09-20T07:34:38.647Z,4.20
2023-09-20T07:37:14.886Z,4.20
2023-09-20T07:40:08.323Z,8.00
2023-09-20T07:42:41.821Z,6.70
2023-09-20T07:45:14.624Z,9.50
2023-09-20T07:47:46.975Z,5.80
2023-09-20T07:50:19.510Z,5.00
2023-09-20T07:52:52.261Z,7.50
2023-09-20T07:55:24.686Z,5.90
2023-09-20T07:57:59.363Z,7.30
2023-09-20T08:00:32.569Z,3.30
2023-09-20T08:03:07.145Z,6.20
2023-09-20T08:05:40.178Z,5.50
2023-09-20T08:08:13.022Z,3.60
2023-09-20T08:10:55.232Z,6.30
2023-09-20T08:13:53.524Z,4.60
2023-09-20T08:16:41.765Z,6.60
2023-09-20T08:19:23.757Z,3.90
2023-09-20T08:21:56.693Z,5.10
2023-09-20T08:24:46.764Z,7.70
2023-09-20T08:27:36.757Z,6.70
2023-09-20T08:30:28.384Z,9.70
2023-09-20T08:33:18.508Z,9.70
2023-09-20T08:36:08.640Z,5.30
2023-09-20T08:38:59.311Z,3.60
2023-09-20T08:41:49.441Z,5.50
2023-09-20T08:44:40.926Z,7.20
2023-09-20T08:47:31.141Z,5.90
2023-09-20T08:50:21.261Z,5.60
2023-09-20T08:53:12.005Z,4.00
2023-09-20T08:56:02.533Z,4.20
2023-09-20T08:58:53.202Z,2.20
2023-09-20T09:01:26.215Z,3.40
2023-09-20T09:04:03.252Z,2.40
2023-09-20T09:06:36.071Z,2.40
2023-09-20T09:09:10.001Z,3.40
2023-09-20T09:11:46.695Z,4.40
2023-09-20T09:14:19.701Z,3.60
2023-09-20T09:16:52.173Z,2.80
2023-09-20T09:19:24.574Z,3.60
2023-09-20T09:22:17.428Z,3.60
2023-09-20T09:24:51.182Z,2.70
2023-09-20T09:27:24.281Z,2.70
2023-09-20T09:29:56.817Z,4.10
2023-09-20T09:32:34.296Z,4.60
2023-09-20T09:35:09.554Z,1.60
2023-09-20T09:37:43.667Z,2.20
2023-09-20T09:40:16.455Z,2.40
2023-09-20T09:42:49.462Z,4.80
2023-09-20T09:45:33.441Z,3.30
2023-09-20T09:48:08.970Z,3.30
2023-09-20T09:50:41.927Z,3.30
2023-09-20T09:53:17.552Z,4.80
2023-09-20T09:55:53.680Z,2.70
2023-09-20T09:58:24.688Z,2.70
2023-09-20T10:00:59.108Z,3.30
2023-09-20T10:03:52.753Z,3.80
2023-09-20T10:06:29.415Z,1.90
2023-09-20T10:09:06.334Z,2.30
2023-09-20T10:11:39.991Z,1.80
2023-09-20T10:17:07.413Z,3.90
2023-09-20T10:19:41.988Z,3.30
2023-09-20T10:22:15.725Z,1.70
2023-09-20T10:24:54.923Z,2.90
2023-09-20T10:27:31.527Z,2.20
2023-09-20T10:30:10.553Z,1.20
2023-09-20T10:32:58.641Z,5.30
2023-09-20T10:35:32.198Z,2.10
2023-09-20T10:41:09.016Z,2.70
2023-09-20T10:44:03.410Z,2.10
2023-09-20T10:46:39.278Z,2.30
2023-09-20T10:49:15.705Z,2.00
2023-09-20T10:51:54.421Z,3.10
2023-09-20T10:54:31.275Z,2.70
2023-09-20T10:57:11.448Z,5.00
2023-09-20T10:59:47.230Z,2.40
2023-09-20T11:02:20.268Z,4.00
2023-09-20T11:04:52.737Z,3.30
2023-09-20T11:07:27.558Z,3.40
2023-09-20T11:10:00.014Z,3.30
2023-09-20T11:12:33.410Z,3.90
2023-09-20T11:17:40.328Z,1.90
2023-09-20T11:20:15.406Z,2.70
2023-09-20T11:22:50.726Z,2.00
2023-09-20T11:25:23.715Z,3.80
2023-09-20T11:27:57.259Z,3.10
2023-09-20T11:33:03.657Z,1.40
2023-09-20T11:35:41.391Z,5.20
2023-09-20T11:38:16.740Z,1.30
2023-09-20T11:40:53.167Z,1.30
2023-09-20T11:43:29.751Z,1.60
2023-09-20T11:46:06.377Z,1.80
2023-09-20T11:49:22.256Z,1.80
2023-09-20T11:51:55.694Z,1.40
2023-09-20T11:57:24.459Z,3.10
2023-09-20T12:02:30.162Z,1.30
2023-09-20T12:07:34.570Z,2.30
2023-09-20T12:10:27.886Z,2.10
2023-09-20T12:13:00.877Z,1.60
2023-09-20T12:15:34.602Z,1.40
2023-09-20T12:18:09.631Z,1.20
2023-09-20T12:20:42.248Z,1.10
2023-09-20T12:23:15.727Z,1.80
2023-09-20T12:25:48.365Z,4.40
2023-09-20T12:28:21.077Z,4.90
2023-09-20T12:30:54.139Z,2.60
2023-09-20T12:33:27.182Z,0.80
2023-09-20T12:38:32.544Z,2.30
2023-09-20T12:41:04.926Z,4.00
2023-09-20T12:43:38.967Z,2.30
2023-09-20T12:46:11.994Z,2.90
2023-09-20T12:48:46.154Z,1.90
2023-09-20T12:51:18.745Z,2.50
2023-09-20T12:53:51.231Z,1.80
2023-09-20T12:56:24.061Z,1.50
2023-09-20T12:58:57.762Z,1.60
2023-09-20T13:01:33.311Z,2.60
2023-09-20T13:04:06.281Z,4.30
2023-09-20T13:06:39.811Z,7.60
2023-09-20T13:09:15.818Z,2.40
2023-09-20T13:11:48.538Z,2.70
2023-09-20T13:14:22.683Z,4.80
2023-09-20T13:16:54.992Z,1.10
2023-09-20T13:19:27.848Z,2.40
2023-09-20T13:22:01.622Z,1.90
2023-09-20T13:24:34.451Z,12.90
2023-09-20T13:27:07.625Z,1.30
2023-09-20T13:29:40.124Z,1.90
2023-09-20T13:32:12.782Z,2.80
2023-09-20T13:34:45.644Z,1.70
2023-09-20T13:37:19.366Z,3.30
2023-09-20T13:39:52.158Z,3.40
2023-09-20T13:42:25.740Z,1.50
2023-09-20T13:47:30.175Z,3.00
2023-09-20T13:50:05.731Z,4.20
2023-09-20T13:52:40.180Z,2.40
2023-09-20T13:55:15.552Z,1.70
2023-09-20T13:57:50.140Z,3.80
2023-09-20T14:00:22.933Z,1.00
2023-09-20T14:02:55.960Z,1.40
2023-09-20T14:05:28.894Z,4.50
2023-09-20T14:08:01.843Z,4.00
2023-09-20T14:10:35.810Z,2.20
2023-09-20T14:13:09.136Z,6.00
2023-09-20T14:15:41.805Z,2.20
2023-09-20T14:18:14.360Z,1.00
2023-09-20T14:20:49.106Z,6.20
2023-09-20T14:23:23.347Z,2.30
2023-09-20T14:25:56.207Z,1.90
2023-09-20T14:28:30.983Z,1.30
2023-09-20T14:31:03.821Z,2.10
2023-09-20T14:33:36.377Z,1.50
2023-09-20T14:36:12.681Z,1.60
2023-09-20T14:38:45.327Z,1.10
2023-09-20T14:41:18.280Z,1.70
2023-09-20T14:43:50.667Z,1.20
2023-09-20T14:46:23.383Z,1.40
2023-09-20T14:48:56.248Z,2.90
2023-09-20T14:51:28.775Z,1.70
2023-09-20T14:54:01.748Z,1.60
2023-09-20T14:56:34.330Z,1.60
2023-09-20T14:59:06.919Z,1.70
2023-09-20T15:01:41.186Z,1.50
2023-09-20T15:04:13.603Z,6.40
2023-09-20T15:06:46.145Z,3.20
2023-09-20T15:09:18.444Z,3.10
2023-09-20T15:11:51.120Z,6.70
2023-09-20T15:14:23.581Z,3.70
2023-09-20T15:17:16.471Z,1.70
2023-09-20T15:19:50.225Z,1.30
2023-09-20T15:22:25.116Z,1.80
2023-09-20T15:24:59.256Z,4.20
2023-09-20T15:27:34.378Z,2.90
2023-09-20T15:30:08.366Z,1.50
2023-09-20T15:32:42.849Z,2.10
2023-09-20T15:35:15.587Z,3.40
2023-09-20T15:37:49.505Z,1.20
2023-09-20T15:40:20.776Z,1.20
2023-09-20T15:42:56.751Z,2.50
2023-09-20T15:45:30.917Z,0.90
2023-09-20T15:48:03.317Z,1.40
2023-09-20T15:50:38.494Z,2.40
2023-09-20T15:53:15.563Z,2.60
2023-09-20T15:55:47.811Z,2.10
2023-09-20T15:58:20.236Z,2.30
2023-09-20T16:00:52.719Z,2.20
2023-09-20T16:03:28.180Z,4.50
2023-09-20T16:06:00.970Z,4.90
2023-09-20T16:08:34.287Z,7.00
2023-09-20T16:11:06.709Z,3.60
2023-09-20T16:13:39.253Z,4.10
2023-09-20T16:16:14.806Z,5.90
2023-09-20T16:18:48.553Z,3.80
2023-09-20T16:21:22.842Z,9.50
2023-09-20T16:23:57.378Z,5.30
2023-09-20T16:26:29.809Z,6.60
2023-09-20T16:29:02.498Z,12.40
2023-09-20T16:31:35.413Z,9.10
2023-09-20T16:34:10.141Z,10.40
2023-09-20T16:36:42.533Z,9.50
2023-09-20T16:39:14.858Z,12.70
2023-09-20T16:41:47.388Z,9.60
2023-09-20T16:44:19.943Z,11.80
2023-09-20T16:46:52.843Z,9.40
2023-09-20T16:49:25.922Z,10.90
2023-09-20T16:52:00.614Z,9.20
2023-09-20T16:54:33.293Z,15.50
2023-09-20T16:57:05.966Z,11.10
2023-09-20T16:59:38.609Z,17.80
2023-09-20T17:02:11.743Z,12.70
2023-09-20T17:04:44.153Z,15.50
2023-09-20T17:07:17.142Z,28.90
2023-09-20T17:09:49.991Z,44.40
2023-09-20T17:12:22.492Z,48.50
2023-09-20T17:14:54.993Z,59.30
2023-09-20T17:17:27.919Z,66.00
2023-09-20T17:20:02.817Z,48.30
2023-09-20T17:22:35.301Z,18.30
2023-09-20T17:25:09.113Z,10.40
2023-09-20T17:27:43.150Z,22.40
2023-09-20T17:30:18.635Z,11.40
2023-09-20T17:32:51.767Z,21.80
2023-09-20T17:35:24.632Z,20.20
2023-09-20T17:37:58.431Z,20.40
2023-09-20T17:40:33.592Z,20.10
2023-09-20T17:43:06.569Z,15.40
2023-09-20T17:45:42.175Z,12.80
2023-09-20T17:48:14.729Z,14.90
2023-09-20T17:50:49.314Z,14.10
2023-09-20T17:53:23.934Z,15.80
2023-09-20T17:56:01.473Z,15.70
2023-09-20T17:58:36.061Z,10.20
2023-09-20T18:01:09.439Z,19.10
2023-09-20T18:06:14.923Z,12.20
2023-09-20T18:09:07.957Z,18.60
2023-09-20T18:12:00.629Z,14.00
2023-09-20T18:14:33.164Z,26.30
2023-09-20T18:17:05.512Z,17.20
2023-09-20T18:19:39.414Z,15.30
2023-09-20T18:22:14.523Z,22.10
2023-09-20T18:24:47.442Z,20.40
2023-09-20T18:27:41.866Z,20.10
2023-09-20T18:30:19.290Z,24.20
2023-09-20T18:32:57.648Z,13.70
2023-09-20T18:35:30.797Z,25.50
2023-09-20T18:38:03.213Z,15.00
2023-09-20T18:40:35.758Z,14.20
2023-09-20T18:43:51.085Z,32.40
2023-09-20T18:46:29.116Z,26.70
2023-09-20T18:49:03.123Z,13.40
2023-09-20T18:52:17.143Z,11.80
2023-09-20T18:54:51.059Z,21.10
2023-09-20T18:57:26.991Z,20.40
2023-09-20T19:00:02.033Z,19.40
2023-09-20T19:02:36.867Z,19.10
2023-09-20T19:05:11.131Z,22.80
2023-09-20T19:07:45.429Z,17.60
2023-09-20T19:10:19.236Z,27.10
2023-09-20T19:12:52.942Z,27.40
2023-09-20T19:17:56.815Z,19.70
2023-09-20T19:20:37.868Z,20.90
2023-09-20T19:23:14.008Z,17.40
2023-09-20T19:25:47.653Z,13.60
2023-09-20T19:28:20.719Z,17.10
2023-09-20T19:30:55.256Z,16.80
2023-09-20T19:33:47.968Z,12.50
2023-09-20T19:36:41.749Z,12.70
2023-09-20T19:39:16.533Z,15.40
2023-09-20T19:41:48.808Z,14.70
2023-09-20T19:44:21.205Z,14.10
2023-09-20T19:46:53.678Z,14.80
2023-09-20T19:49:27.204Z,14.30
2023-09-20T19:52:00.299Z,22.30
2023-09-20T19:54:34.213Z,25.20
2023-09-20T19:57:07.275Z,18.00
2023-09-20T19:59:40.135Z,16.60
2023-09-20T20:02:14.908Z,29.40
2023-09-20T20:04:47.480Z,29.80
2023-09-20T20:07:27.788Z,32.20
2023-09-20T20:10:02.493Z,30.80
2023-09-20T20:12:35.129Z,34.00
2023-09-20T20:15:08.994Z,27.50
2023-09-20T20:17:44.924Z,24.80
2023-09-20T20:20:21.156Z,24.50
2023-09-20T20:22:56.386Z,27.50
2023-09-20T20:25:35.809Z,27.90
2023-09-20T20:28:13.745Z,21.60
2023-09-20T20:30:47.180Z,25.80
2023-09-20T20:33:20.448Z,18.50
2023-09-20T20:35:53.888Z,19.50
2023-09-20T20:38:26.246Z,22.10
2023-09-20T20:40:58.629Z,18.70
2023-09-20T20:43:31.517Z,17.90
2023-09-20T20:46:04.336Z,20.80
2023-09-20T20:48:38.535Z,12.30
2023-09-20T20:51:17.574Z,18.50
2023-09-20T20:53:50.193Z,17.00
2023-09-20T20:56:29.763Z,23.30
2023-09-20T20:59:02.571Z,15.00
2023-09-20T21:01:37.602Z,17.10
2023-09-20T21:04:10.948Z,9.30
2023-09-20T21:06:45.536Z,10.20
2023-09-20T21:09:38.089Z,11.60
2023-09-20T21:12:12.641Z,14.50
2023-09-20T21:14:46.106Z,12.90
2023-09-20T21:17:18.479Z,13.00
2023-09-20T21:19:51.422Z,13.50
2023-09-20T21:22:26.635Z,11.30
2023-09-20T21:24:59.446Z,10.70
2023-09-20T21:27:31.978Z,7.80
2023-09-20T21:30:06.584Z,15.30
2023-09-20T21:32:39.095Z,11.40
2023-09-20T21:35:12.560Z,9.80
2023-09-20T21:37:45.239Z,13.80
2023-09-20T21:40:19.477Z,9.40
2023-09-20T21:42:52.073Z,7.40
2023-09-20T21:45:25.705Z,10.40
2023-09-20T21:47:58.510Z,13.20
2023-09-20T21:50:32.472Z,8.20
2023-09-20T21:53:05.793Z,3.70
2023-09-20T21:55:38.284Z,7.50
2023-09-20T21:58:11.153Z,6.40
2023-09-20T22:00:43.614Z,4.30
2023-09-20T22:03:16.124Z,9.00
2023-09-20T22:06:10.072Z,4.40
2023-09-20T22:08:43.056Z,4.60
2023-09-20T22:11:16.263Z,5.10
2023-09-20T22:13:49.953Z,8.20
2023-09-20T22:16:22.344Z,4.70
2023-09-20T22:18:59.411Z,6.30
2023-09-20T22:21:31.947Z,6.00
2023-09-20T22:24:06.580Z,7.80
2023-09-20T22:26:39.324Z,6.90
2023-09-20T22:29:11.964Z,7.60
2023-09-20T22:31:44.373Z,4.30
2023-09-20T22:34:17.829Z,8.80
2023-09-20T22:36:51.663Z,4.80
2023-09-20T22:41:56.162Z,7.10
2023-09-20T22:44:29.247Z,6.10
2023-09-20T22:47:01.524Z,4.80
2023-09-20T22:49:35.470Z,12.70
2023-09-20T22:52:08.129Z,9.60
2023-09-20T22:54:40.552Z,5.10
2023-09-20T22:57:13.586Z,4.90
2023-09-20T22:59:46.133Z,4.90
2023-09-20T23:02:21.443Z,6.30
2023-09-20T23:04:56.360Z,5.90
2023-09-20T23:07:30.676Z,6.30
2023-09-20T23:10:06.329Z,6.00
2023-09-20T23:12:39.194Z,6.90
2023-09-20T23:15:13.741Z,5.50
2023-09-20T23:17:50.332Z,5.10
2023-09-20T23:20:32.412Z,4.30
2023-09-20T23:23:06.638Z,11.10
2023-09-20T23:25:40.565Z,4.10
2023-09-20T23:30:46.179Z,3.90
2023-09-20T23:33:22.868Z,5.10
2023-09-20T23:35:58.073Z,4.00
2023-09-20T23:38:33.742Z,4.50
2023-09-20T23:41:15.758Z,4.10
2023-09-20T23:43:52.134Z,8.30
2023-09-20T23:46:27.756Z,4.90
2023-09-20T23:49:06.133Z,3.70
2023-09-20T23:51:39.071Z,5.30
2023-09-20T23:54:11.705Z,4.00
2023-09-20T23:56:44.343Z,6.70
2023-09-20T23:59:16.803Z,9.60
